createdAt,value
2022-08-02T00:01:39.213Z,59.08
2022-08-02T00:04:12.025Z,59.27
2022-08-02T00:06:44.233Z,59.73
2022-08-02T00:09:16.714Z,59.83
2022-08-02T00:11:48.867Z,59.98
2022-08-02T00:14:21.651Z,59.82
2022-08-02T00:16:54.154Z,59.90
2022-08-02T00:19:26.764Z,59.91
2022-08-02T00:21:58.911Z,60.14
2022-08-02T00:24:31.321Z,60.12
2022-08-02T00:27:05.021Z,60.25
2022-08-02T00:29:52.545Z,60.53
2022-08-02T00:32:25.292Z,60.66
2022-08-02T00:34:57.829Z,60.79
2022-08-02T00:37:30.234Z,60.68
2022-08-02T00:40:03.636Z,60.57
2022-08-02T00:42:36.013Z,60.72
2022-08-02T00:45:09.934Z,60.84
2022-08-02T00:47:41.997Z,60.97
2022-08-02T00:50:14.904Z,60.89
2022-08-02T00:52:47.511Z,61.22
2022-08-02T00:55:23.575Z,61.12
2022-08-02T00:58:03.928Z,61.28
2022-08-02T01:00:36.838Z,61.27
2022-08-02T01:03:08.898Z,61.22
2022-08-02T01:06:09.167Z,61.13
2022-08-02T01:08:34.716Z,61.25
2022-08-02T01:11:08.952Z,61.23
2022-08-02T01:13:41.612Z,61.51
2022-08-02T01:16:17.601Z,61.52
2022-08-02T01:18:55.760Z,61.50
2022-08-02T01:21:39.660Z,61.56
2022-08-02T01:24:32.003Z,61.67
2022-08-02T01:27:27.743Z,61.74
2022-08-02T01:30:02.924Z,61.62
2022-08-02T01:32:43.008Z,61.41
2022-08-02T01:35:18.806Z,61.32
2022-08-02T01:37:56.353Z,61.35
2022-08-02T01:40:31.692Z,61.47
2022-08-02T01:43:05.168Z,61.57
2022-08-02T01:45:40.584Z,61.72
2022-08-02T01:48:14.315Z,61.77
2022-08-02T01:50:48.216Z,62.04
2022-08-02T01:53:23.253Z,61.97
2022-08-02T01:55:59.074Z,62.03
2022-08-02T01:58:36.521Z,62.00
2022-08-02T02:01:07.932Z,61.97
2022-08-02T02:03:43.468Z,61.89
2022-08-02T02:06:16.422Z,61.81
2022-08-02T02:08:51.430Z,61.99
2022-08-02T02:12:09.529Z,62.34
2022-08-02T02:14:18.362Z,62.28
2022-08-02T02:16:52.152Z,62.48
2022-08-02T02:19:25.828Z,62.44
2022-08-02T02:21:58.427Z,62.43
2022-08-02T02:24:31.024Z,62.38
2022-08-02T02:27:08.592Z,62.41
2022-08-02T02:29:45.279Z,62.83
2022-08-02T02:32:19.957Z,62.72
2022-08-02T02:34:53.311Z,62.62
2022-08-02T02:37:28.113Z,62.78
2022-08-02T02:40:02.036Z,63.09
2022-08-02T02:42:36.392Z,63.02
2022-08-02T02:45:10.841Z,63.08
2022-08-02T02:47:44.334Z,63.29
2022-08-02T02:50:46.957Z,63.17
2022-08-02T02:53:22.313Z,63.63
2022-08-02T02:56:01.771Z,63.59
2022-08-02T02:58:35.396Z,63.61
2022-08-02T03:01:53.198Z,63.47
2022-08-02T03:04:18.720Z,63.59
2022-08-02T03:06:51.451Z,63.76
2022-08-02T03:09:23.577Z,63.80
2022-08-02T03:11:56.702Z,63.91
2022-08-02T03:14:28.909Z,64.13
2022-08-02T03:17:01.581Z,63.93
2022-08-02T03:19:33.883Z,63.99
2022-08-02T03:22:06.508Z,64.34
2022-08-02T03:24:38.669Z,64.35
2022-08-02T03:27:11.587Z,64.40
2022-08-02T03:29:43.688Z,64.42
2022-08-02T03:32:16.313Z,64.60
2022-08-02T03:34:48.667Z,64.70
2022-08-02T03:37:22.424Z,64.84
2022-08-02T03:39:55.022Z,64.73
2022-08-02T03:42:29.073Z,64.75
2022-08-02T03:45:07.763Z,64.70
2022-08-02T03:47:43.221Z,64.90
2022-08-02T03:50:15.744Z,64.94
2022-08-02T03:52:49.476Z,65.00
2022-08-02T03:55:21.626Z,65.04
2022-08-02T03:57:54.561Z,65.29
2022-08-02T04:00:26.637Z,65.40
2022-08-02T04:02:59.757Z,65.23
2022-08-02T04:05:32.026Z,65.49
2022-08-02T04:08:35.965Z,65.43
2022-08-02T04:11:14.414Z,65.36
2022-08-02T04:13:46.882Z,65.28
2022-08-02T04:16:24.334Z,65.55
2022-08-02T04:18:58.050Z,65.28
2022-08-02T04:21:48.615Z,65.06
2022-08-02T04:24:28.100Z,65.28
2022-08-02T04:27:19.407Z,65.08
2022-08-02T04:29:55.126Z,64.91
2022-08-02T04:32:28.352Z,64.73
2022-08-02T04:38:09.110Z,64.02
2022-08-02T04:40:51.353Z,63.42
2022-08-02T04:43:23.917Z,63.14
2022-08-02T04:45:57.396Z,62.75
2022-08-02T04:48:29.935Z,62.38
2022-08-02T04:51:02.830Z,62.04
2022-08-02T04:53:35.087Z,61.49
2022-08-02T04:56:08.329Z,61.30
2022-08-02T04:58:41.009Z,61.07
2022-08-02T05:01:13.834Z,60.72
2022-08-02T05:03:46.791Z,60.48
2022-08-02T05:06:20.933Z,60.44
2022-08-02T05:08:53.724Z,60.27
2022-08-02T05:11:34.740Z,59.70
2022-08-02T05:14:09.172Z,59.14
2022-08-02T05:16:41.712Z,59.02
2022-08-02T05:19:13.798Z,58.47
2022-08-02T05:21:46.201Z,58.12
2022-08-02T05:24:18.319Z,57.09
2022-08-02T05:26:50.993Z,55.46
2022-08-02T05:29:23.315Z,53.28
2022-08-02T05:31:55.730Z,50.96
2022-08-02T05:34:27.841Z,49.14
2022-08-02T05:37:00.351Z,46.97
2022-08-02T05:39:32.792Z,45.21
2022-08-02T05:42:05.528Z,43.11
2022-08-02T05:44:37.765Z,41.00
2022-08-02T05:47:10.630Z,40.13
2022-08-02T05:49:43.226Z,38.66
2022-08-02T05:52:19.355Z,37.63
2022-08-02T05:54:56.157Z,37.55
2022-08-02T05:57:47.411Z,37.64
2022-08-02T06:00:20.834Z,37.24
2022-08-02T06:03:05.222Z,37.02
2022-08-02T06:05:43.130Z,36.48
2022-08-02T06:08:17.032Z,34.66
2022-08-02T06:10:51.079Z,33.49
2022-08-02T06:13:23.938Z,33.12
2022-08-02T06:15:59.787Z,32.46
2022-08-02T06:18:32.942Z,31.85
2022-08-02T06:22:33.525Z,30.87
2022-08-02T06:24:02.222Z,30.13
2022-08-02T06:26:35.641Z,29.33
2022-08-02T06:29:07.918Z,27.93
2022-08-02T06:31:42.173Z,27.69
2022-08-02T06:34:17.910Z,27.08
2022-08-02T06:37:02.647Z,26.62
2022-08-02T06:39:42.004Z,26.39
2022-08-02T06:42:17.138Z,26.58
2022-08-02T06:45:00.348Z,26.55
2022-08-02T06:47:32.399Z,26.64
2022-08-02T06:50:05.078Z,26.20
2022-08-02T06:52:37.711Z,26.18
2022-08-02T06:55:11.709Z,26.38
2022-08-02T06:57:43.908Z,27.02
2022-08-02T07:00:17.191Z,27.44
2022-08-02T07:02:50.277Z,26.95
2022-08-02T07:05:22.826Z,27.41
2022-08-02T07:07:55.137Z,27.25
2022-08-02T07:10:27.376Z,26.51
2022-08-02T07:12:59.967Z,26.19
2022-08-02T07:15:32.696Z,26.03
2022-08-02T07:18:05.156Z,25.70
2022-08-02T07:20:37.557Z,25.52
2022-08-02T07:23:09.677Z,25.49
2022-08-02T07:26:03.026Z,25.58
2022-08-02T07:28:35.355Z,24.79
2022-08-02T07:31:07.854Z,24.06
2022-08-02T07:33:43.323Z,23.95
2022-08-02T07:36:22.755Z,23.59
2022-08-02T07:38:55.055Z,23.11
2022-08-02T07:41:27.407Z,22.68
2022-08-02T07:43:59.515Z,22.27
2022-08-02T07:46:33.559Z,22.17
2022-08-02T07:49:05.882Z,21.59
2022-08-02T07:51:38.153Z,21.49
2022-08-02T07:54:10.381Z,21.13
2022-08-02T07:56:59.019Z,21.04
2022-08-02T07:59:31.507Z,21.83
2022-08-02T08:02:04.129Z,21.74
2022-08-02T08:04:36.553Z,21.86
2022-08-02T08:07:11.178Z,21.07
2022-08-02T08:09:45.225Z,21.15
2022-08-02T08:12:17.895Z,21.76
2022-08-02T08:14:49.928Z,21.86
2022-08-02T08:17:22.617Z,21.66
2022-08-02T08:19:54.752Z,20.80
2022-08-02T08:22:27.075Z,20.52
2022-08-02T08:24:59.381Z,20.50
2022-08-02T08:27:31.744Z,20.11
2022-08-02T08:30:04.731Z,19.85
2022-08-02T08:32:37.375Z,19.52
2022-08-02T08:35:10.842Z,20.13
2022-08-02T08:37:43.517Z,20.33
2022-08-02T08:40:19.578Z,20.20
2022-08-02T08:42:52.403Z,20.35
2022-08-02T08:45:24.919Z,19.82
2022-08-02T08:48:07.845Z,20.22
2022-08-02T08:50:47.318Z,20.45
2022-08-02T08:53:21.458Z,20.48
2022-08-02T08:56:14.088Z,20.12
2022-08-02T08:58:48.779Z,20.16
2022-08-02T09:01:21.707Z,19.92
2022-08-02T09:03:54.488Z,20.34
2022-08-02T09:06:27.258Z,20.30
2022-08-02T09:08:59.641Z,20.30
2022-08-02T09:11:32.184Z,20.45
2022-08-02T09:14:06.135Z,21.04
2022-08-02T09:16:40.757Z,20.79
2022-08-02T09:19:23.554Z,20.31
2022-08-02T09:22:04.922Z,20.49
2022-08-02T09:24:47.217Z,20.63
2022-08-02T09:27:21.811Z,21.25
2022-08-02T09:30:12.439Z,21.13
2022-08-02T09:32:50.049Z,21.05
2022-08-02T09:36:05.909Z,21.09
2022-08-02T09:38:29.852Z,20.81
2022-08-02T09:41:03.011Z,21.09
2022-08-02T09:43:57.933Z,21.17
2022-08-02T09:46:39.113Z,21.66
2022-08-02T09:49:13.296Z,21.58
2022-08-02T09:51:53.608Z,21.34
2022-08-02T09:54:27.773Z,21.06
2022-08-02T09:57:01.930Z,20.94
2022-08-02T09:59:34.043Z,21.39
2022-08-02T10:02:16.888Z,21.42
2022-08-02T10:04:52.479Z,21.35
2022-08-02T10:07:26.491Z,21.59
2022-08-02T10:09:59.183Z,21.81
2022-08-02T10:12:31.894Z,21.51
2022-08-02T10:15:04.032Z,22.00
2022-08-02T10:17:36.915Z,22.36
2022-08-02T10:20:10.810Z,22.41
2022-08-02T10:22:45.002Z,23.14
2022-08-02T10:25:18.338Z,23.75
2022-08-02T10:28:04.807Z,24.42
2022-08-02T10:30:41.127Z,25.16
2022-08-02T10:33:18.146Z,25.94
2022-08-02T10:36:04.470Z,24.79
2022-08-02T10:38:39.933Z,25.15
2022-08-02T10:41:12.782Z,24.56
2022-08-02T10:43:50.670Z,24.85
2022-08-02T10:46:32.626Z,25.10
2022-08-02T10:49:38.570Z,25.68
2022-08-02T10:52:11.485Z,25.92
2022-08-02T10:54:45.488Z,26.65
2022-08-02T10:57:22.830Z,27.04
2022-08-02T10:59:56.630Z,27.65
2022-08-02T11:02:53.134Z,27.87
2022-08-02T11:05:42.182Z,27.96
2022-08-02T11:08:25.161Z,28.55
2022-08-02T11:11:02.241Z,28.24
2022-08-02T11:13:54.435Z,28.95
2022-08-02T11:16:46.850Z,28.86
2022-08-02T11:19:18.930Z,29.06
2022-08-02T11:22:03.364Z,28.52
2022-08-02T11:24:37.388Z,28.41
2022-08-02T11:27:18.063Z,29.10
2022-08-02T11:29:53.832Z,29.01
2022-08-02T11:32:31.324Z,28.66
2022-08-02T11:35:04.540Z,28.62
2022-08-02T11:37:39.069Z,28.59
2022-08-02T11:40:19.593Z,28.89
2022-08-02T11:42:54.215Z,28.92
2022-08-02T11:45:30.060Z,29.39
2022-08-02T11:48:02.892Z,29.47
2022-08-02T11:50:35.124Z,29.92
2022-08-02T11:53:16.037Z,30.18
2022-08-02T11:55:48.223Z,30.62
2022-08-02T11:58:20.844Z,31.08
2022-08-02T12:00:54.582Z,31.33
2022-08-02T12:03:27.545Z,31.65
2022-08-02T12:06:06.086Z,32.19
2022-08-02T12:08:40.430Z,32.50
2022-08-02T12:11:12.489Z,33.01
2022-08-02T12:13:57.230Z,32.86
2022-08-02T12:16:54.558Z,32.65
2022-08-02T12:19:29.528Z,32.67
2022-08-02T12:22:13.139Z,32.65
2022-08-02T12:24:47.783Z,32.59
2022-08-02T12:27:34.345Z,33.12
2022-08-02T12:30:09.786Z,33.05
2022-08-02T12:32:42.727Z,33.29
2022-08-02T12:35:26.700Z,33.06
2022-08-02T12:37:59.450Z,33.06
2022-08-02T12:40:36.597Z,32.97
2022-08-02T12:43:17.346Z,32.90
2022-08-02T12:45:53.350Z,32.88
2022-08-02T12:48:39.218Z,32.57
2022-08-02T12:51:25.519Z,32.32
2022-08-02T12:54:24.171Z,32.62
2022-08-02T12:57:15.717Z,32.43
2022-08-02T12:59:53.784Z,32.26
2022-08-02T13:02:26.530Z,32.74
2022-08-02T13:05:01.959Z,32.90
2022-08-02T13:07:34.446Z,32.72
2022-08-02T13:10:10.050Z,32.61
2022-08-02T13:12:42.999Z,32.53
2022-08-02T13:15:48.785Z,32.71
2022-08-02T13:18:08.254Z,32.92
2022-08-02T13:20:45.576Z,32.98
2022-08-02T13:23:21.786Z,33.13
2022-08-02T13:25:54.904Z,33.19
2022-08-02T13:28:27.725Z,33.06
2022-08-02T13:31:14.947Z,33.33
2022-08-02T13:33:52.411Z,33.58
2022-08-02T13:36:24.546Z,34.04
2022-08-02T13:38:57.354Z,33.97
2022-08-02T13:41:32.977Z,34.15
2022-08-02T13:44:10.300Z,34.73
2022-08-02T13:46:45.225Z,34.68
2022-08-02T13:49:21.614Z,34.49
2022-08-02T13:51:54.220Z,34.53
2022-08-02T13:54:26.703Z,34.47
2022-08-02T13:56:58.918Z,34.17
2022-08-02T13:59:58.017Z,34.12
2022-08-02T14:02:24.150Z,33.90
2022-08-02T14:04:57.145Z,33.90
2022-08-02T14:07:29.356Z,34.40
2022-08-02T14:10:02.006Z,34.57
2022-08-02T14:12:34.335Z,34.68
2022-08-02T14:15:08.108Z,34.73
2022-08-02T14:17:40.482Z,34.83
2022-08-02T14:20:20.111Z,34.94
2022-08-02T14:22:55.074Z,35.14
2022-08-02T14:25:27.494Z,35.42
2022-08-02T14:27:59.737Z,35.22
2022-08-02T14:30:32.548Z,35.38
2022-08-02T14:33:05.206Z,35.64
2022-08-02T14:35:37.926Z,35.79
2022-08-02T14:38:12.871Z,35.94
2022-08-02T14:40:45.410Z,36.00
2022-08-02T14:43:37.722Z,36.39
2022-08-02T14:46:13.175Z,36.52
2022-08-02T14:48:45.256Z,36.58
2022-08-02T14:51:17.795Z,36.61
2022-08-02T14:54:03.155Z,36.45
2022-08-02T14:56:36.619Z,36.71
2022-08-02T14:59:08.820Z,36.54
2022-08-02T15:01:41.402Z,36.83
2022-08-02T15:04:13.807Z,37.06
2022-08-02T15:06:46.418Z,36.97
2022-08-02T15:09:18.662Z,37.48
2022-08-02T15:11:51.787Z,37.28
2022-08-02T15:14:26.342Z,37.18
2022-08-02T15:16:59.355Z,37.29
2022-08-02T15:19:56.704Z,37.47
2022-08-02T15:22:24.549Z,37.65
2022-08-02T15:24:57.238Z,37.50
2022-08-02T15:27:29.879Z,37.89
2022-08-02T15:30:02.087Z,37.63
2022-08-02T15:32:34.996Z,37.96
2022-08-02T15:35:09.243Z,38.14
2022-08-02T15:37:41.956Z,38.10
2022-08-02T15:40:15.192Z,38.24
2022-08-02T15:42:47.777Z,38.29
2022-08-02T15:45:20.728Z,38.66
2022-08-02T15:47:53.284Z,38.81
2022-08-02T15:50:25.656Z,38.59
2022-08-02T15:52:58.134Z,38.60
2022-08-02T15:55:30.265Z,38.70
2022-08-02T15:58:23.342Z,39.16
2022-08-02T16:00:55.836Z,39.01
2022-08-02T16:03:28.082Z,38.83
2022-08-02T16:06:00.524Z,38.93
2022-08-02T16:08:32.955Z,39.16
2022-08-02T16:11:05.205Z,39.55
2022-08-02T16:13:54.474Z,39.94
2022-08-02T16:16:34.618Z,39.83
2022-08-02T16:19:46.463Z,39.31
2022-08-02T16:21:59.935Z,39.70
2022-08-02T16:24:32.344Z,39.88
2022-08-02T16:27:04.764Z,40.04
2022-08-02T16:29:37.700Z,39.89
2022-08-02T16:32:11.717Z,40.32
2022-08-02T16:35:07.826Z,40.66
2022-08-02T16:37:51.692Z,40.69
2022-08-02T16:40:25.418Z,41.11
2022-08-02T16:42:57.673Z,40.66
2022-08-02T16:45:32.668Z,41.26
2022-08-02T16:48:07.215Z,41.36
2022-08-02T16:50:41.852Z,41.45
2022-08-02T16:53:34.203Z,41.51
2022-08-02T16:56:11.191Z,41.53
2022-08-02T16:58:45.034Z,41.59
2022-08-02T17:01:27.265Z,41.37
2022-08-02T17:04:00.110Z,41.90
2022-08-02T17:06:32.680Z,41.62
2022-08-02T17:09:05.186Z,41.70
2022-08-02T17:11:41.729Z,41.82
2022-08-02T17:14:21.798Z,41.76
2022-08-02T17:16:59.415Z,42.06
2022-08-02T17:22:24.051Z,42.62
2022-08-02T17:24:59.327Z,42.88
2022-08-02T17:27:32.110Z,42.94
2022-08-02T17:30:05.541Z,43.31
2022-08-02T17:32:45.344Z,42.99
2022-08-02T17:35:17.884Z,43.28
2022-08-02T17:37:54.615Z,43.27
2022-08-02T17:40:32.407Z,43.86
2022-08-02T17:43:14.222Z,43.89
2022-08-02T17:45:59.924Z,44.15
2022-08-02T17:48:55.088Z,44.29
2022-08-02T17:52:14.987Z,44.49
2022-08-02T17:54:21.151Z,44.85
2022-08-02T17:56:55.709Z,44.76
2022-08-02T17:59:30.836Z,44.77
2022-08-02T18:02:14.448Z,44.90
2022-08-02T18:04:47.282Z,45.09
2022-08-02T18:07:25.252Z,45.32
2022-08-02T18:09:57.711Z,45.22
2022-08-02T18:12:32.063Z,45.58
2022-08-02T18:15:06.890Z,45.65
2022-08-02T18:17:46.871Z,45.77
2022-08-02T18:20:19.118Z,45.80
2022-08-02T18:22:55.574Z,45.50
2022-08-02T18:25:37.124Z,45.72
2022-08-02T18:28:16.377Z,45.90
2022-08-02T18:30:48.722Z,46.09
2022-08-02T18:33:57.333Z,46.00
2022-08-02T18:36:24.611Z,46.13
2022-08-02T18:38:57.534Z,46.27
2022-08-02T18:41:29.948Z,46.35
2022-08-02T18:44:07.768Z,46.57
2022-08-02T18:46:41.582Z,46.71
2022-08-02T18:49:15.587Z,46.87
2022-08-02T18:51:47.999Z,47.16
2022-08-02T18:54:30.760Z,47.36
2022-08-02T18:57:51.350Z,47.44
2022-08-02T18:59:58.984Z,47.42
2022-08-02T19:02:31.636Z,47.82
2022-08-02T19:05:06.827Z,47.96
2022-08-02T19:07:50.724Z,47.96
2022-08-02T19:10:25.002Z,48.61
2022-08-02T19:12:57.713Z,49.00
2022-08-02T19:15:29.970Z,49.09
2022-08-02T19:18:04.559Z,49.25
2022-08-02T19:20:37.453Z,49.38
2022-08-02T19:23:11.623Z,49.52
2022-08-02T19:25:54.422Z,49.59
2022-08-02T19:28:28.080Z,49.77
2022-08-02T19:31:00.423Z,49.95
2022-08-02T19:34:04.793Z,50.18
2022-08-02T19:36:25.562Z,50.63
2022-08-02T19:39:00.567Z,50.95
2022-08-02T19:41:44.049Z,51.06
2022-08-02T19:44:23.173Z,51.33
2022-08-02T19:47:00.982Z,51.49
2022-08-02T19:49:39.433Z,51.81
2022-08-02T19:52:22.010Z,52.08
2022-08-02T19:55:01.900Z,52.15
2022-08-02T19:57:49.890Z,52.27
2022-08-02T20:00:26.884Z,52.38
2022-08-02T20:03:00.130Z,52.55
2022-08-02T20:05:33.252Z,52.63
2022-08-02T20:08:05.789Z,52.88
2022-08-02T20:10:41.071Z,52.94
2022-08-02T20:13:18.188Z,53.09
2022-08-02T20:15:57.497Z,53.35
2022-08-02T20:18:30.633Z,53.48
2022-08-02T20:21:03.559Z,53.67
2022-08-02T20:23:35.727Z,53.81
2022-08-02T20:26:11.261Z,54.14
2022-08-02T20:28:43.484Z,54.33
2022-08-02T20:31:16.580Z,54.33
2022-08-02T20:33:56.089Z,54.71
2022-08-02T20:36:29.614Z,54.70
2022-08-02T20:39:01.591Z,54.83
2022-08-02T20:41:36.838Z,54.85
2022-08-02T20:44:31.000Z,54.76
2022-08-02T20:47:04.598Z,54.93
2022-08-02T20:49:57.019Z,54.95
2022-08-02T20:52:29.993Z,54.89
2022-08-02T20:55:02.397Z,54.86
2022-08-02T20:57:48.484Z,54.74
2022-08-02T21:00:21.751Z,54.74
2022-08-02T21:02:55.631Z,54.78
2022-08-02T21:05:43.863Z,54.95
2022-08-02T21:08:21.290Z,54.88
2022-08-02T21:10:55.552Z,54.97
2022-08-02T21:13:29.947Z,54.92
2022-08-02T21:16:05.711Z,54.94
2022-08-02T21:18:41.232Z,54.98
2022-08-02T21:21:16.260Z,54.99
2022-08-02T21:23:54.871Z,54.96
2022-08-02T21:26:28.083Z,55.25
2022-08-02T21:29:04.104Z,55.63
2022-08-02T21:31:36.754Z,55.47
2022-08-02T21:34:26.855Z,55.56
2022-08-02T21:36:59.566Z,55.36
2022-08-02T21:39:32.496Z,55.43
2022-08-02T21:42:04.704Z,55.64
2022-08-02T21:44:37.311Z,55.65
2022-08-02T21:47:16.865Z,55.80
2022-08-02T21:50:09.593Z,55.98
2022-08-02T21:52:42.373Z,56.02
2022-08-02T21:56:00.296Z,56.13
2022-08-02T21:58:20.017Z,56.23
2022-08-02T22:00:52.826Z,56.00
2022-08-02T22:03:25.056Z,56.16
2022-08-02T22:06:02.343Z,56.33
2022-08-02T22:08:36.780Z,56.56
2022-08-02T22:11:17.143Z,56.75
2022-08-02T22:13:49.506Z,56.96
2022-08-02T22:16:23.241Z,57.25
2022-08-02T22:18:58.377Z,57.47
2022-08-02T22:21:46.548Z,57.60
2022-08-02T22:24:30.308Z,57.64
2022-08-02T22:27:03.613Z,57.88
2022-08-02T22:29:35.783Z,57.99
2022-08-02T22:32:11.737Z,58.43
2022-08-02T22:34:54.148Z,58.50
2022-08-02T22:38:16.239Z,58.33
2022-08-02T22:40:18.754Z,58.67
2022-08-02T22:42:51.129Z,58.71
2022-08-02T22:45:23.736Z,59.11
2022-08-02T22:47:56.593Z,59.24
2022-08-02T22:50:29.391Z,59.46
2022-08-02T22:53:03.043Z,59.54
2022-08-02T22:55:35.871Z,59.62
2022-08-02T22:58:14.608Z,59.89
2022-08-02T22:58:38.007Z,42.16
2022-08-02T23:00:51.544Z,59.96
2022-08-02T23:03:24.221Z,60.08
2022-08-02T23:05:56.365Z,59.89
2022-08-02T23:08:29.090Z,60.09
2022-08-02T23:11:01.360Z,60.18
2022-08-02T23:13:34.632Z,60.29
2022-08-02T23:16:25.010Z,60.54
2022-08-02T23:19:15.079Z,60.68
2022-08-02T23:22:01.489Z,60.73
2022-08-02T23:24:35.804Z,60.90
2022-08-02T23:27:08.246Z,60.92
2022-08-02T23:29:40.603Z,61.06
2022-08-02T23:32:12.881Z,61.19
2022-08-02T23:34:46.948Z,61.28
2022-08-02T23:37:19.156Z,61.51
2022-08-02T23:39:53.333Z,61.63
2022-08-02T23:42:26.048Z,61.66
2022-08-02T23:44:59.138Z,61.63
2022-08-02T23:47:31.713Z,62.02
2022-08-02T23:50:04.208Z,62.02
2022-08-02T23:52:36.802Z,62.23
2022-08-02T23:55:10.812Z,62.24
2022-08-02T23:57:43.561Z,62.30
